< < Back
Terminal Aerodrome Forecast


Current Version              Previous Versions:   1  2  3  4  5  6  7  8  9  

Terminal Aerodrome Forecast

570
FTUS42 KCAE 251700
TAFAGS
TAF
KAGS 251739Z 2518/2618 22007KT P6SM SKC
     FM260400 23006KT P6SM BKN035 OVC100
     FM261400 29012KT P6SM SCT025 BKN100=

Latest METAR

661
SAUS70 KWBC 251800 RRB
MTRAGS
METAR KAGS 251753Z 22006KT 10SM CLR 14/M02 A2990 RMK AO2 SLP126
T01441017 10144 21022 58035


USA.gov is the U.S. government's official web portal to all federal, state and local government web resources and services.